Time;durP1;ratioP1;P1;durP2;ratioP2;P2;SDS_P1;SDS_P2;PMS_P1;PMS_P2;Temp;Humidity;BMP_temperature;BMP_pressure;BME280_temperature;BME280_humidity;BME280_pressure;Samples;Min_cycle;Max_cycle;Signal;HPM_P1;HPM_P2
2022/11/17 00:02:17;;;;;;;5.20;2.72;;;;;;;;;;5055588;28;20581;-82
2022/11/17 00:04:44;;;;;;;5.43;3.10;;;;;;;;;;5055452;28;20553;-82
2022/11/17 00:07:13;;;;;;;4.60;2.70;;;;;;;;;;5055432;28;20135;-83
2022/11/17 00:09:41;;;;;;;4.93;2.70;;;;;;;;;;5022504;28;20031;-83
2022/11/17 00:14:57;;;;;;;4.47;2.60;;;;;;;;;;5057419;28;20032;-82
2022/11/17 00:17:25;;;;;;;4.97;2.67;;;;;;;;;;5055123;28;20191;-82
2022/11/17 00:22:38;;;;;;;6.18;3.20;;;;;;;;;;5060095;28;20044;-83
2022/11/17 00:25:07;;;;;;;3.78;2.38;;;;;;;;;;5055546;28;20036;-83
2022/11/17 00:27:36;;;;;;;3.90;2.50;;;;;;;;;;5055067;28;20113;-82
2022/11/17 00:30:05;;;;;;;6.43;3.03;;;;;;;;;;5055073;28;20056;-82
2022/11/17 00:35:34;;;;;;;4.15;2.33;;;;;;;;;;5002649;28;20141;-81
2022/11/17 00:38:14;;;;;;;4.15;2.40;;;;;;;;;;5009465;28;20064;-81
2022/11/17 00:40:39;;;;;;;3.47;1.98;;;;;;;;;;5056083;28;20033;-80
2022/11/17 00:43:07;;;;;;;3.28;2.03;;;;;;;;;;5054273;28;20043;-81
2022/11/17 00:45:33;;;;;;;4.28;2.38;;;;;;;;;;5021380;28;20580;-80
2022/11/17 00:48:02;;;;;;;3.80;2.08;;;;;;;;;;5038290;28;20036;-80
2022/11/17 00:50:29;;;;;;;3.28;2.00;;;;;;;;;;5021436;28;20040;-79
2022/11/17 00:52:55;;;;;;;2.92;1.85;;;;;;;;;;5021633;28;20035;-81
2022/11/17 00:55:23;;;;;;;4.05;2.13;;;;;;;;;;5054534;28;20028;-80
2022/11/17 00:57:51;;;;;;;3.78;1.90;;;;;;;;;;5054474;28;20041;-80
2022/11/17 01:00:20;;;;;;;3.13;1.98;;;;;;;;;;5054062;28;20036;-80
2022/11/17 01:02:46;;;;;;;2.88;1.85;;;;;;;;;;5054448;28;20512;-81
2022/11/17 01:05:12;;;;;;;2.97;1.70;;;;;;;;;;5057950;28;20123;-80
2022/11/17 01:07:39;;;;;;;4.15;2.08;;;;;;;;;;5041725;28;20044;-80
2022/11/17 01:10:05;;;;;;;3.00;1.65;;;;;;;;;;5025355;28;20043;-79
2022/11/17 01:12:31;;;;;;;2.92;1.50;;;;;;;;;;5041672;28;20040;-80
2022/11/17 01:14:59;;;;;;;3.00;1.55;;;;;;;;;;5058146;28;20028;-80
2022/11/17 01:17:26;;;;;;;4.22;1.85;;;;;;;;;;5058032;28;20039;-80
2022/11/17 01:19:53;;;;;;;3.20;1.95;;;;;;;;;;5024859;28;20085;-80
2022/11/17 01:22:22;;;;;;;3.22;1.73;;;;;;;;;;5025297;28;20035;-79
2022/11/17 01:24:47;;;;;;;2.83;1.52;;;;;;;;;;5041626;28;20036;-81
2022/11/17 01:27:13;;;;;;;2.80;1.50;;;;;;;;;;5057661;28;20036;-79
2022/11/17 01:29:40;;;;;;;2.83;1.63;;;;;;;;;;5057861;28;20032;-80
2022/11/17 01:32:08;;;;;;;3.45;1.70;;;;;;;;;;5057945;28;20044;-79
2022/11/17 01:34:34;;;;;;;3.42;1.60;;;;;;;;;;5057743;28;20048;-80
2022/11/17 01:37:19;;;;;;;2.67;1.42;;;;;;;;;;5057367;28;20136;-79
2022/11/17 01:39:45;;;;;;;2.60;1.40;;;;;;;;;;5046110;28;20074;-79
2022/11/17 01:42:17;;;;;;;2.83;1.65;;;;;;;;;;5057444;28;20060;-79
2022/11/17 01:44:47;;;;;;;2.33;1.35;;;;;;;;;;5040515;28;20051;-79
2022/11/17 01:47:40;;;;;;;2.90;1.10;;;;;;;;;;5057160;28;20131;-80
2022/11/17 01:50:33;;;;;;;2.38;1.20;;;;;;;;;;5059217;28;20033;-82
2022/11/17 01:53:03;;;;;;;3.47;1.60;;;;;;;;;;5056953;28;20453;-83
2022/11/17 01:55:45;;;;;;;2.50;1.45;;;;;;;;;;5058300;28;20028;-84
2022/11/17 01:58:13;;;;;;;;;;;;;;;;;;5075037;28;20032;-83
2022/11/17 02:00:42;;;;;;;2.25;1.30;;;;;;;;;;5058149;28;19915;-85
2022/11/17 02:03:09;;;;;;;2.72;1.25;;;;;;;;;;5057720;28;20035;-85
2022/11/17 02:05:47;;;;;;;2.75;1.40;;;;;;;;;;5041611;28;20401;-85
2022/11/17 02:08:20;;;;;;;2.50;1.30;;;;;;;;;;5058335;28;20443;-85
2022/11/17 02:10:48;;;;;;;3.20;1.35;;;;;;;;;;5057987;28;20420;-85
2022/11/17 02:13:19;;;;;;;2.38;1.30;;;;;;;;;;5040864;28;20447;-84
2022/11/17 02:15:45;;;;;;;2.10;1.30;;;;;;;;;;5040616;28;20045;-82
2022/11/17 02:18:12;;;;;;;2.72;1.17;;;;;;;;;;5057456;28;20029;-82
2022/11/17 02:20:52;;;;;;;2.30;1.05;;;;;;;;;;5057031;28;20390;-80
2022/11/17 02:23:31;;;;;;;3.30;1.30;;;;;;;;;;5073537;28;20060;-78
2022/11/17 02:26:17;;;;;;;3.15;1.08;;;;;;;;;;5056606;28;20043;-80
2022/11/17 02:29:14;;;;;;;2.03;0.88;;;;;;;;;;5056791;28;20439;-78
2022/11/17 02:31:49;;;;;;;2.55;1.35;;;;;;;;;;5028090;28;20045;-79
2022/11/17 02:34:28;;;;;;;1.15;0.65;;;;;;;;;;5057172;28;20036;-79
2022/11/17 02:37:20;;;;;;;1.50;0.90;;;;;;;;;;5057038;28;20107;-79
2022/11/17 02:40:04;;;;;;;2.83;1.10;;;;;;;;;;5056186;28;20456;-79
2022/11/17 02:45:29;;;;;;;2.30;1.00;;;;;;;;;;5058538;28;20047;-79
2022/11/17 02:47:55;;;;;;;1.90;0.85;;;;;;;;;;5057310;28;20075;-79
2022/11/17 02:50:22;;;;;;;1.73;0.82;;;;;;;;;;5055956;28;20032;-79
2022/11/17 02:52:49;;;;;;;1.98;0.95;;;;;;;;;;5039288;28;20397;-79
2022/11/17 02:55:14;;;;;;;2.15;0.95;;;;;;;;;;5039480;28;20032;-79
2022/11/17 02:57:41;;;;;;;2.25;0.80;;;;;;;;;;5055863;28;20066;-79
2022/11/17 03:00:11;;;;;;;1.90;0.90;;;;;;;;;;5039493;28;20036;-80
2022/11/17 03:03:05;;;;;;;1.40;0.80;;;;;;;;;;5056267;28;20136;-80
2022/11/17 03:05:40;;;;;;;1.70;0.85;;;;;;;;;;5072197;28;20140;-79
2022/11/17 03:08:24;;;;;;;1.98;0.80;;;;;;;;;;5056533;28;20037;-80
2022/11/17 03:10:59;;;;;;;1.67;0.70;;;;;;;;;;5056235;28;20029;-80
2022/11/17 03:14:02;;;;;;;2.45;0.75;;;;;;;;;;5039469;28;20028;-81
2022/11/17 03:16:50;;;;;;;2.42;1.00;;;;;;;;;;5055930;28;20078;-80
2022/11/17 03:19:23;;;;;;;2.00;0.85;;;;;;;;;;5041016;28;20032;-80
2022/11/17 03:22:11;;;;;;;1.42;0.70;;;;;;;;;;5038939;28;20036;-80
2022/11/17 03:24:51;;;;;;;2.08;0.70;;;;;;;;;;5055465;28;20029;-80
2022/11/17 03:27:23;;;;;;;1.50;0.70;;;;;;;;;;5054427;28;20032;-80
2022/11/17 03:29:51;;;;;;;1.52;0.77;;;;;;;;;;5038846;28;20032;-80
2022/11/17 03:32:19;;;;;;;1.73;0.70;;;;;;;;;;5046311;28;20184;-81
2022/11/17 03:34:54;;;;;;;1.75;0.80;;;;;;;;;;5059268;28;20070;-85
2022/11/17 03:37:20;;;;;;;1.80;0.80;;;;;;;;;;5043282;28;20043;-84
2022/11/17 03:39:52;;;;;;;1.25;0.60;;;;;;;;;;5042814;28;20559;-82
2022/11/17 03:42:24;;;;;;;2.43;0.87;;;;;;;;;;5042745;28;20111;-83
2022/11/17 03:45:02;;;;;;;1.98;0.90;;;;;;;;;;5058961;28;20274;-83
2022/11/17 03:47:30;;;;;;;1.75;0.60;;;;;;;;;;5043698;28;20040;-82
2022/11/17 03:50:10;;;;;;;1.60;0.77;;;;;;;;;;5042596;28;20552;-83
2022/11/17 03:52:36;;;;;;;1.95;0.93;;;;;;;;;;5059437;28;20032;-82
2022/11/17 03:55:02;;;;;;;1.40;0.70;;;;;;;;;;5042687;28;20040;-82
2022/11/17 03:57:56;;;;;;;1.40;0.68;;;;;;;;;;5042848;28;20035;-81
2022/11/17 04:00:25;;;;;;;1.48;0.60;;;;;;;;;;5044600;28;20035;-82
2022/11/17 04:02:55;;;;;;;1.55;0.75;;;;;;;;;;5058836;28;20028;-81
2022/11/17 04:05:23;;;;;;;1.70;0.60;;;;;;;;;;5055137;28;20036;-81
2022/11/17 04:07:48;;;;;;;1.42;0.50;;;;;;;;;;5021982;28;20032;-81
2022/11/17 04:10:19;;;;;;;2.53;0.82;;;;;;;;;;5022152;28;20036;-82
2022/11/17 04:15:55;;;;;;;2.20;0.98;;;;;;;;;;5060316;28;20486;-81
2022/11/17 04:18:22;;;;;;;1.67;0.55;;;;;;;;;;5043609;28;20029;-82
2022/11/17 04:20:54;;;;;;;1.38;0.40;;;;;;;;;;5022347;28;20060;-82
2022/11/17 04:23:21;;;;;;;1.80;0.40;;;;;;;;;;5022341;28;20025;-83
2022/11/17 04:28:48;;;;;;;1.35;0.60;;;;;;;;;;5027309;28;20040;-81
2022/11/17 04:31:13;;;;;;;1.45;0.65;;;;;;;;;;5038150;28;20480;-81
2022/11/17 04:33:41;;;;;;;1.60;0.57;;;;;;;;;;5054491;28;20128;-81
2022/11/17 04:36:11;;;;;;;3.03;1.10;;;;;;;;;;5021431;28;20047;-80
2022/11/17 04:38:41;;;;;;;1.52;0.50;;;;;;;;;;5037777;28;20113;-80
2022/11/17 04:43:53;;;;;;;2.45;0.57;;;;;;;;;;5059278;28;20086;-80
2022/11/17 04:46:20;;;;;;;1.65;0.68;;;;;;;;;;5054395;28;20075;-80
2022/11/17 04:48:46;;;;;;;1.77;0.60;;;;;;;;;;5037764;28;20135;-80
2022/11/17 04:51:12;;;;;;;2.55;0.60;;;;;;;;;;5037232;28;20532;-80
2022/11/17 04:53:38;;;;;;;1.50;0.70;;;;;;;;;;5037128;28;20024;-80
2022/11/17 04:56:04;;;;;;;1.90;0.50;;;;;;;;;;5037037;28;20056;-80
2022/11/17 04:58:29;;;;;;;1.40;0.52;;;;;;;;;;5021157;28;20398;-80
2022/11/17 05:00:55;;;;;;;1.70;0.57;;;;;;;;;;5020289;28;20036;-80
2022/11/17 05:03:20;;;;;;;2.42;0.80;;;;;;;;;;5037483;28;20040;-81
2022/11/17 05:05:46;;;;;;;1.73;0.60;;;;;;;;;;5037134;28;20101;-80
2022/11/17 05:08:12;;;;;;;2.28;0.80;;;;;;;;;;5037125;28;20498;-79
2022/11/17 05:13:21;;;;;;;1.20;0.50;;;;;;;;;;5056226;28;20036;-80
2022/11/17 05:18:39;;;;;;;1.50;0.55;;;;;;;;;;5070866;28;20516;-80
2022/11/17 05:21:05;;;;;;;2.05;0.55;;;;;;;;;;5036819;28;20119;-80
2022/11/17 05:24:04;;;;;;;1.65;0.70;;;;;;;;;;5037258;28;20037;-80
2022/11/17 05:26:28;;;;;;;1.60;0.52;;;;;;;;;;5055339;28;20060;-79
2022/11/17 05:28:56;;;;;;;1.77;0.52;;;;;;;;;;5037366;28;20035;-80
2022/11/17 05:31:23;;;;;;;2.45;0.60;;;;;;;;;;5036865;28;20029;-79
2022/11/17 05:33:50;;;;;;;1.92;0.60;;;;;;;;;;5036710;28;20036;-80
2022/11/17 05:36:17;;;;;;;2.35;0.60;;;;;;;;;;5036709;28;20052;-80
2022/11/17 05:38:45;;;;;;;2.75;0.75;;;;;;;;;;5037179;28;20127;-79
2022/11/17 05:41:13;;;;;;;1.35;0.55;;;;;;;;;;5036987;28;20059;-79
2022/11/17 05:43:39;;;;;;;1.95;0.43;;;;;;;;;;5036651;28;20025;-79
2022/11/17 05:46:07;;;;;;;1.50;0.55;;;;;;;;;;5037148;28;20036;-80
2022/11/17 05:48:33;;;;;;;1.92;0.60;;;;;;;;;;5037362;28;20064;-81
2022/11/17 05:51:01;;;;;;;1.30;0.55;;;;;;;;;;5040181;28;20413;-82
2022/11/17 05:53:27;;;;;;;1.35;0.35;;;;;;;;;;5041244;28;20044;-85
2022/11/17 05:56:24;;;;;;;2.15;0.40;;;;;;;;;;5041293;28;20125;-86
2022/11/17 05:58:52;;;;;;;1.48;0.70;;;;;;;;;;5057830;28;20033;-84
2022/11/17 06:01:23;;;;;;;1.95;0.50;;;;;;;;;;5041702;28;20040;-87
2022/11/17 06:03:53;;;;;;;2.03;0.40;;;;;;;;;;5057900;28;20402;-83
2022/11/17 06:06:22;;;;;;;2.15;0.68;;;;;;;;;;5041094;28;20044;-86
2022/11/17 06:08:52;;;;;;;1.65;0.55;;;;;;;;;;5041447;28;20486;-84
2022/11/17 06:11:20;;;;;;;1.88;0.35;;;;;;;;;;5040934;28;20461;-82
2022/11/17 06:13:46;;;;;;;1.15;0.40;;;;;;;;;;5040944;28;20039;-80
2022/11/17 06:16:15;;;;;;;1.58;0.40;;;;;;;;;;5056912;28;20494;-80
2022/11/17 06:18:46;;;;;;;1.00;0.40;;;;;;;;;;5040311;28;20374;-79
2022/11/17 06:21:14;;;;;;;1.80;0.63;;;;;;;;;;5039969;28;20040;-79
2022/11/17 06:23:41;;;;;;;1.33;0.40;;;;;;;;;;5039851;28;20064;-79
2022/11/17 06:26:07;;;;;;;1.48;0.32;;;;;;;;;;5039120;28;20135;-79
2022/11/17 06:28:37;;;;;;;1.00;0.38;;;;;;;;;;5056735;28;20024;-79
2022/11/17 06:31:07;;;;;;;3.38;1.25;;;;;;;;;;5039921;28;20131;-79
2022/11/17 06:33:34;;;;;;;2.80;0.52;;;;;;;;;;5039656;28;20073;-79
2022/11/17 06:36:01;;;;;;;3.70;0.80;;;;;;;;;;5039288;28;20044;-78
2022/11/17 06:38:28;;;;;;;2.70;0.55;;;;;;;;;;5039530;28;20028;-79
2022/11/17 06:40:54;;;;;;;7.70;1.00;;;;;;;;;;5055828;28;20032;-78
2022/11/17 06:43:20;;;;;;;3.53;0.73;;;;;;;;;;5074035;28;20109;-81
2022/11/17 06:45:45;;;;;;;5.63;0.82;;;;;;;;;;5058804;28;20036;-80
2022/11/17 06:48:12;;;;;;;8.30;0.90;;;;;;;;;;5037870;28;20033;-78
2022/11/17 06:50:38;;;;;;;5.55;1.25;;;;;;;;;;5058688;28;20066;-79
2022/11/17 06:53:05;;;;;;;3.75;1.25;;;;;;;;;;5058590;28;20481;-80
2022/11/17 06:55:31;;;;;;;8.77;2.30;;;;;;;;;;5075749;28;20040;-81
2022/11/17 06:57:58;;;;;;;4.43;2.00;;;;;;;;;;5058414;28;20507;-80
2022/11/17 07:00:24;;;;;;;5.03;1.70;;;;;;;;;;5042051;28;20032;-80
2022/11/17 07:02:49;;;;;;;8.18;1.85;;;;;;;;;;5058035;28;20028;-80
2022/11/17 07:05:15;;;;;;;5.65;1.85;;;;;;;;;;5075050;28;20051;-79
2022/11/17 07:07:40;;;;;;;5.63;1.77;;;;;;;;;;5058595;28;20029;-78
2022/11/17 07:10:06;;;;;;;5.70;1.65;;;;;;;;;;5058385;28;20548;-80
2022/11/17 07:12:32;;;;;;;5.78;2.08;;;;;;;;;;5058128;28;20032;-79
2022/11/17 07:14:57;;;;;;;6.70;2.08;;;;;;;;;;5058213;28;20035;-79
2022/11/17 07:17:22;;;;;;;12.40;2.25;;;;;;;;;;5058200;28;20028;-79
2022/11/17 07:19:48;;;;;;;7.28;2.10;;;;;;;;;;5058231;28;20040;-79
2022/11/17 07:22:13;;;;;;;6.53;1.98;;;;;;;;;;5058155;28;20036;-79
2022/11/17 07:24:39;;;;;;;9.32;1.80;;;;;;;;;;5074717;28;20040;-79
2022/11/17 07:27:05;;;;;;;11.60;2.17;;;;;;;;;;5041731;28;20078;-78
2022/11/17 07:29:31;;;;;;;7.05;1.90;;;;;;;;;;5057761;28;20032;-79
2022/11/17 07:31:58;;;;;;;11.35;1.75;;;;;;;;;;5037933;28;20060;-78
2022/11/17 07:34:23;;;;;;;15.00;1.70;;;;;;;;;;5036094;28;20467;-78
2022/11/17 07:36:48;;;;;;;7.18;1.60;;;;;;;;;;5054074;28;20037;-79
2022/11/17 07:39:14;;;;;;;5.18;1.50;;;;;;;;;;5054419;28;20037;-78
2022/11/17 07:41:40;;;;;;;5.63;1.25;;;;;;;;;;5060249;28;20136;-79
2022/11/17 07:44:06;;;;;;;4.85;1.90;;;;;;;;;;5073920;28;20043;-78
2022/11/17 07:46:31;;;;;;;7.68;2.15;;;;;;;;;;5089591;28;20036;-79
2022/11/17 07:48:56;;;;;;;6.43;1.52;;;;;;;;;;5072863;28;20508;-78
2022/11/17 07:51:22;;;;;;;6.85;1.40;;;;;;;;;;5074364;28;20055;-78
2022/11/17 07:53:47;;;;;;;7.65;1.80;;;;;;;;;;5057298;28;20043;-79
2022/11/17 07:56:13;;;;;;;5.60;1.80;;;;;;;;;;5057538;28;20557;-78
2022/11/17 07:58:38;;;;;;;7.95;1.20;;;;;;;;;;5073287;28;20047;-78
2022/11/17 08:01:08;;;;;;;8.60;1.60;;;;;;;;;;5073488;28;20501;-78
2022/11/17 08:03:33;;;;;;;2.80;1.00;;;;;;;;;;5057951;28;20484;-79
2022/11/17 08:06:03;;;;;;;7.55;1.40;;;;;;;;;;5073775;28;20196;-78
2022/11/17 08:08:28;;;;;;;5.03;1.80;;;;;;;;;;5074494;28;20074;-78
2022/11/17 08:10:53;;;;;;;5.53;0.95;;;;;;;;;;5074033;28;20464;-78
2022/11/17 08:13:19;;;;;;;3.15;1.10;;;;;;;;;;5056284;28;20039;-78
2022/11/17 08:15:44;;;;;;;5.65;1.15;;;;;;;;;;5070951;28;20490;-79
2022/11/17 08:18:12;;;;;;;4.05;1.42;;;;;;;;;;5062205;28;20044;-78
2022/11/17 08:20:38;;;;;;;3.92;1.23;;;;;;;;;;5025664;28;20040;-79
2022/11/17 08:23:03;;;;;;;5.75;1.88;;;;;;;;;;5037965;28;20040;-78
2022/11/17 08:25:29;;;;;;;4.13;1.40;;;;;;;;;;5073010;28;20524;-78
2022/11/17 08:27:55;;;;;;;4.10;1.50;;;;;;;;;;5073428;28;20042;-78
2022/11/17 08:30:21;;;;;;;3.92;1.23;;;;;;;;;;5073401;28;20405;-78
2022/11/17 08:32:50;;;;;;;6.50;1.63;;;;;;;;;;5073941;28;20421;-77
2022/11/17 08:35:17;;;;;;;6.25;1.50;;;;;;;;;;5057431;28;20040;-78
2022/11/17 08:37:42;;;;;;;5.85;1.98;;;;;;;;;;5057135;28;20083;-78
2022/11/17 08:40:08;;;;;;;5.07;1.60;;;;;;;;;;5039623;28;20489;-79
2022/11/17 08:42:34;;;;;;;9.25;4.57;;;;;;;;;;5055891;28;20032;-79
2022/11/17 08:44:59;;;;;;;7.07;4.88;;;;;;;;;;5061543;28;20032;-79
2022/11/17 08:47:25;;;;;;;9.18;5.03;;;;;;;;;;5023251;28;20054;-79
2022/11/17 08:49:51;;;;;;;8.10;4.20;;;;;;;;;;5072600;28;20024;-79
2022/11/17 08:52:18;;;;;;;8.63;4.28;;;;;;;;;;5107337;28;20032;-79
2022/11/17 08:54:44;;;;;;;7.75;3.90;;;;;;;;;;5059589;28;20044;-79
2022/11/17 08:57:10;;;;;;;5.75;3.53;;;;;;;;;;5073691;28;20028;-79
2022/11/17 08:59:36;;;;;;;7.53;3.83;;;;;;;;;;5039109;28;20036;-79
2022/11/17 09:02:01;;;;;;;6.68;4.00;;;;;;;;;;5053378;28;20102;-79
2022/11/17 09:04:26;;;;;;;6.70;3.67;;;;;;;;;;5047372;28;20053;-79
2022/11/17 09:06:52;;;;;;;5.63;3.72;;;;;;;;;;5037989;28;20040;-79
2022/11/17 09:09:17;;;;;;;6.57;3.60;;;;;;;;;;5030411;28;20073;-79
2022/11/17 09:11:43;;;;;;;6.00;3.28;;;;;;;;;;5053180;28;20132;-79
2022/11/17 09:14:08;;;;;;;8.02;3.40;;;;;;;;;;5053484;28;20024;-79
2022/11/17 09:16:35;;;;;;;7.75;3.88;;;;;;;;;;5039093;28;20151;-79
2022/11/17 09:19:01;;;;;;;8.65;3.90;;;;;;;;;;5071629;28;20017;-79
2022/11/17 09:21:27;;;;;;;5.68;3.35;;;;;;;;;;5045318;28;20500;-79
2022/11/17 09:23:53;;;;;;;5.82;3.33;;;;;;;;;;5039408;28;20059;-79
2022/11/17 09:26:18;;;;;;;4.95;2.75;;;;;;;;;;5109895;28;20036;-78
2022/11/17 09:28:45;;;;;;;5.10;2.88;;;;;;;;;;5057376;28;20052;-79
2022/11/17 09:31:15;;;;;;;5.35;3.10;;;;;;;;;;5059436;28;20032;-79
2022/11/17 09:33:42;;;;;;;5.70;3.10;;;;;;;;;;5059766;28;20048;-78
2022/11/17 09:36:07;;;;;;;3.97;2.50;;;;;;;;;;5076477;28;20518;-79
2022/11/17 09:38:35;;;;;;;4.78;2.70;;;;;;;;;;5076817;28;20115;-79
2022/11/17 09:41:37;;;;;;;5.97;2.42;;;;;;;;;;5074024;28;20409;-79
2022/11/17 09:44:24;;;;;;;4.90;2.80;;;;;;;;;;5068209;28;20050;-80
2022/11/17 09:47:05;;;;;;;4.07;2.13;;;;;;;;;;5075977;28;20039;-78
2022/11/17 09:49:53;;;;;;;4.65;2.30;;;;;;;;;;5064640;28;20036;-79
2022/11/17 09:52:31;;;;;;;6.78;2.78;;;;;;;;;;5066311;28;20037;-80
2022/11/17 09:55:23;;;;;;;5.03;2.38;;;;;;;;;;5093125;28;20042;-79
2022/11/17 09:57:53;;;;;;;5.00;2.67;;;;;;;;;;5068575;28;20055;-80
2022/11/17 10:00:19;;;;;;;3.65;2.50;;;;;;;;;;5060777;28;20032;-78
2022/11/17 10:02:46;;;;;;;3.42;2.17;;;;;;;;;;5059994;28;20028;-78
2022/11/17 10:05:39;;;;;;;5.82;2.70;;;;;;;;;;5059644;28;20040;-78
2022/11/17 10:08:07;;;;;;;5.18;2.28;;;;;;;;;;5059187;28;20047;-78
2022/11/17 10:10:43;;;;;;;4.20;2.10;;;;;;;;;;5042868;28;20055;-78
2022/11/17 10:13:24;;;;;;;6.18;2.13;;;;;;;;;;5039981;28;20485;-79
2022/11/17 10:16:03;;;;;;;5.60;2.42;;;;;;;;;;5073747;28;20512;-78
2022/11/17 10:18:31;;;;;;;5.03;2.10;;;;;;;;;;5040029;28;20032;-78
2022/11/17 10:21:08;;;;;;;4.18;1.77;;;;;;;;;;5024167;28;20060;-78
2022/11/17 10:23:42;;;;;;;8.80;3.10;;;;;;;;;;5077113;28;20044;-77
2022/11/17 10:26:12;;;;;;;5.07;2.03;;;;;;;;;;5023272;28;20024;-78
2022/11/17 10:28:38;;;;;;;5.00;1.98;;;;;;;;;;5056188;28;20071;-77
2022/11/17 10:31:10;;;;;;;4.60;1.98;;;;;;;;;;5073100;28;20025;-76
2022/11/17 10:33:41;;;;;;;5.15;1.63;;;;;;;;;;5091712;28;20043;-77
2022/11/17 10:36:18;;;;;;;10.85;2.45;;;;;;;;;;5059490;28;20095;-77
2022/11/17 10:38:45;;;;;;;7.20;2.10;;;;;;;;;;5075897;28;20442;-77
2022/11/17 10:41:22;;;;;;;8.85;2.78;;;;;;;;;;5042528;28;20063;-77
2022/11/17 10:44:21;;;;;;;5.18;1.85;;;;;;;;;;5043734;28;20422;-78
2022/11/17 10:46:52;;;;;;;12.05;2.63;;;;;;;;;;5074218;28;20421;-77
2022/11/17 10:49:29;;;;;;;7.68;2.05;;;;;;;;;;5074747;28;20069;-77
2022/11/17 10:52:10;;;;;;;9.65;2.50;;;;;;;;;;5076882;28;20558;-78
2022/11/17 10:54:36;;;;;;;9.07;1.77;;;;;;;;;;5092107;28;20028;-78
2022/11/17 10:57:04;;;;;;;7.40;1.80;;;;;;;;;;5058473;28;20447;-78
2022/11/17 10:59:44;;;;;;;6.00;1.40;;;;;;;;;;5042252;28;20056;-78
2022/11/17 11:02:36;;;;;;;6.18;1.80;;;;;;;;;;5058333;28;20040;-78
2022/11/17 11:05:05;;;;;;;5.90;2.58;;;;;;;;;;5057020;28;20501;-77
2022/11/17 11:07:31;;;;;;;5.45;2.00;;;;;;;;;;5058377;28;20078;-78
2022/11/17 11:10:26;;;;;;;7.38;2.05;;;;;;;;;;5058331;28;20032;-78
2022/11/17 11:12:55;;;;;;;8.75;1.83;;;;;;;;;;5060477;28;20497;-77
2022/11/17 11:15:22;;;;;;;7.43;1.52;;;;;;;;;;5058679;28;20035;-77
2022/11/17 11:17:47;;;;;;;2.95;1.23;;;;;;;;;;5041907;28;20597;-78
2022/11/17 11:20:13;;;;;;;4.85;1.45;;;;;;;;;;5058184;28;20123;-78
2022/11/17 11:22:54;;;;;;;4.78;1.50;;;;;;;;;;5058474;28;20039;-78
2022/11/17 11:25:54;;;;;;;5.22;1.98;;;;;;;;;;5058084;28;20024;-78
2022/11/17 11:28:52;;;;;;;6.40;1.50;;;;;;;;;;5058400;28;20466;-78
2022/11/17 11:31:40;;;;;;;7.25;2.00;;;;;;;;;;5058027;28;20028;-78
2022/11/17 11:34:49;;;;;;;2.55;1.30;;;;;;;;;;5037940;28;20028;-77
2022/11/17 11:37:15;;;;;;;5.85;1.83;;;;;;;;;;4963411;28;20053;-78
2022/11/17 11:39:52;;;;;;;6.25;2.25;;;;;;;;;;4942590;28;20042;-77
2022/11/17 11:42:50;;;;;;;8.30;2.30;;;;;;;;;;5008728;28;20044;-78
2022/11/17 11:45:15;;;;;;;6.05;2.05;;;;;;;;;;5058870;28;20040;-78
2022/11/17 11:48:09;;;;;;;7.03;2.17;;;;;;;;;;5088789;28;20040;-77
2022/11/17 11:50:41;;;;;;;5.35;2.40;;;;;;;;;;5058714;28;20058;-78
2022/11/17 11:53:22;;;;;;;7.05;2.30;;;;;;;;;;5073338;28;20077;-77
2022/11/17 11:55:48;;;;;;;6.20;1.70;;;;;;;;;;5063782;28;20037;-77
2022/11/17 11:58:20;;;;;;;5.50;1.65;;;;;;;;;;5073460;28;20136;-77
2022/11/17 12:00:46;;;;;;;4.75;1.55;;;;;;;;;;5070800;28;20032;-77
2022/11/17 12:03:14;;;;;;;6.20;1.58;;;;;;;;;;5055197;28;20420;-77
2022/11/17 12:05:57;;;;;;;6.00;1.70;;;;;;;;;;5088286;28;20105;-77
2022/11/17 12:08:37;;;;;;;6.82;1.80;;;;;;;;;;5065267;28;20086;-77
2022/11/17 12:13:52;;;;;;;4.45;1.23;;;;;;;;;;5083503;28;20111;-77
2022/11/17 12:16:19;;;;;;;3.38;1.17;;;;;;;;;;5055163;28;20131;-77
2022/11/17 12:18:44;;;;;;;3.28;1.02;;;;;;;;;;5072857;28;20103;-77
2022/11/17 12:21:13;;;;;;;3.35;1.30;;;;;;;;;;5064756;28;20047;-77
2022/11/17 12:23:54;;;;;;;6.47;1.30;;;;;;;;;;5064964;28;20447;-77
2022/11/17 12:26:21;;;;;;;4.68;1.23;;;;;;;;;;5081188;28;20043;-76
2022/11/17 12:28:46;;;;;;;5.15;1.70;;;;;;;;;;5055384;28;20020;-77
2022/11/17 12:31:41;;;;;;;3.05;0.82;;;;;;;;;;5072639;28;20070;-77
2022/11/17 12:34:06;;;;;;;3.40;1.23;;;;;;;;;;5088641;28;20385;-79
2022/11/17 12:36:32;;;;;;;6.03;1.20;;;;;;;;;;5072274;28;20043;-78
2022/11/17 12:39:03;;;;;;;8.52;1.52;;;;;;;;;;5089802;28;20032;-79
2022/11/17 12:41:47;;;;;;;2.70;0.75;;;;;;;;;;5047944;28;20032;-77
2022/11/17 12:44:43;;;;;;;4.00;1.33;;;;;;;;;;5072975;28;20035;-77
2022/11/17 12:47:21;;;;;;;2.47;0.77;;;;;;;;;;5068710;28;20104;-77
2022/11/17 12:50:18;;;;;;;4.30;1.42;;;;;;;;;;5057094;28;20061;-77
2022/11/17 12:53:08;;;;;;;2.67;0.73;;;;;;;;;;5090178;28;20036;-78
2022/11/17 12:55:33;;;;;;;6.35;0.75;;;;;;;;;;5091567;28;20031;-79
2022/11/17 12:58:19;;;;;;;4.30;1.10;;;;;;;;;;5090943;28;20059;-76
2022/11/17 13:01:21;;;;;;;2.50;0.90;;;;;;;;;;5093518;28;20032;-76
2022/11/17 13:03:48;;;;;;;;;;;;;;;;;;5094229;28;20126;-78
2022/11/17 13:06:14;;;;;;;3.38;1.00;;;;;;;;;;5093887;28;20011;-78
2022/11/17 13:08:47;;;;;;;4.07;0.80;;;;;;;;;;5076585;28;20501;-78
2022/11/17 13:11:13;;;;;;;3.53;1.02;;;;;;;;;;5061606;28;20036;-78
2022/11/17 13:13:40;;;;;;;3.80;0.80;;;;;;;;;;5060921;28;20031;-79
2022/11/17 13:16:09;;;;;;;2.88;0.60;;;;;;;;;;5077446;28;20028;-79
2022/11/17 13:18:36;;;;;;;3.25;1.42;;;;;;;;;;5060773;28;20103;-79
2022/11/17 13:21:02;;;;;;;4.65;1.00;;;;;;;;;;5076034;28;20032;-78
2022/11/17 13:23:29;;;;;;;3.35;1.02;;;;;;;;;;5058527;28;20028;-79
2022/11/17 13:26:15;;;;;;;4.40;0.85;;;;;;;;;;5042814;28;20122;-79
2022/11/17 13:28:40;;;;;;;4.00;0.90;;;;;;;;;;5072279;28;20528;-78
2022/11/17 13:31:21;;;;;;;3.05;0.73;;;;;;;;;;5075720;28;20032;-78
2022/11/17 13:34:05;;;;;;;3.30;0.80;;;;;;;;;;5084679;28;20020;-79
2022/11/17 13:36:30;;;;;;;2.60;0.63;;;;;;;;;;5075732;28;20071;-79
2022/11/17 13:38:56;;;;;;;4.15;1.52;;;;;;;;;;5075581;28;20119;-80
2022/11/17 13:41:23;;;;;;;3.88;1.33;;;;;;;;;;5100896;28;20081;-79
2022/11/17 13:43:49;;;;;;;4.15;1.23;;;;;;;;;;5057278;28;20024;-78
2022/11/17 13:46:14;;;;;;;3.35;1.27;;;;;;;;;;5075338;28;20564;-78
2022/11/17 13:48:41;;;;;;;4.25;1.25;;;;;;;;;;5075151;28;20109;-78
2022/11/17 13:51:19;;;;;;;3.78;1.30;;;;;;;;;;5092476;28;20044;-78
2022/11/17 13:54:10;;;;;;;3.05;1.30;;;;;;;;;;5092021;28;20558;-79
2022/11/17 13:56:40;;;;;;;3.37;1.10;;;;;;;;;;5073893;28;20048;-78
2022/11/17 13:59:32;;;;;;;3.25;1.55;;;;;;;;;;5050640;28;20098;-79
2022/11/17 14:02:15;;;;;;;3.17;1.00;;;;;;;;;;5091260;28;20103;-79
2022/11/17 14:05:01;;;;;;;3.42;1.10;;;;;;;;;;5066640;28;20044;-78
2022/11/17 14:07:31;;;;;;;4.03;1.15;;;;;;;;;;5074508;28;20047;-79
2022/11/17 14:10:18;;;;;;;4.65;1.52;;;;;;;;;;5067012;28;20151;-79
2022/11/17 14:12:44;;;;;;;3.80;1.60;;;;;;;;;;5090830;28;20039;-78
2022/11/17 14:15:13;;;;;;;4.05;1.60;;;;;;;;;;5059809;28;20040;-78
2022/11/17 14:17:46;;;;;;;;;;;;;;;;;;5076889;28;20040;-80
2022/11/17 14:20:24;;;;;;;4.53;1.83;;;;;;;;;;5059466;28;19919;-79
2022/11/17 14:23:03;;;;;;;3.67;1.50;;;;;;;;;;5092898;28;20393;-79
2022/11/17 14:25:28;;;;;;;2.97;1.23;;;;;;;;;;5092998;28;20043;-78
2022/11/17 14:27:54;;;;;;;3.28;1.58;;;;;;;;;;5093008;28;20028;-78
2022/11/17 14:30:19;;;;;;;4.95;1.60;;;;;;;;;;5075902;28;20043;-79
2022/11/17 14:32:45;;;;;;;3.00;1.40;;;;;;;;;;5055295;28;20460;-79
2022/11/17 14:35:14;;;;;;;2.97;1.30;;;;;;;;;;5055742;28;20123;-79
2022/11/17 14:37:40;;;;;;;4.43;1.90;;;;;;;;;;5039643;28;20083;-78
2022/11/17 14:40:11;;;;;;;2.78;1.48;;;;;;;;;;5056049;28;20552;-79
2022/11/17 14:42:36;;;;;;;3.40;1.30;;;;;;;;;;5055495;28;20068;-78
2022/11/17 14:45:02;;;;;;;2.67;0.90;;;;;;;;;;5072221;28;20040;-79
2022/11/17 14:47:27;;;;;;;2.78;1.23;;;;;;;;;;5054999;28;20127;-79
2022/11/17 14:49:53;;;;;;;2.15;1.10;;;;;;;;;;5055464;28;20048;-79
2022/11/17 14:52:18;;;;;;;2.85;1.23;;;;;;;;;;5062464;28;20028;-78
2022/11/17 14:54:44;;;;;;;4.50;1.88;;;;;;;;;;5058666;28;20050;-78
2022/11/17 14:57:09;;;;;;;3.42;1.13;;;;;;;;;;5058870;28;20032;-78
2022/11/17 14:59:34;;;;;;;4.13;1.38;;;;;;;;;;5058304;28;20500;-79
2022/11/17 15:02:00;;;;;;;2.92;1.10;;;;;;;;;;5058265;28;20040;-79
2022/11/17 15:04:25;;;;;;;3.88;1.13;;;;;;;;;;5092100;28;20043;-78
2022/11/17 15:06:51;;;;;;;3.03;1.20;;;;;;;;;;5093230;28;20130;-78
2022/11/17 15:09:19;;;;;;;4.50;1.80;;;;;;;;;;5058257;28;20047;-78
2022/11/17 15:11:44;;;;;;;3.17;1.33;;;;;;;;;;5075066;28;20046;-78
2022/11/17 15:14:10;;;;;;;2.28;0.90;;;;;;;;;;5057872;28;20020;-78
2022/11/17 15:16:35;;;;;;;3.38;1.10;;;;;;;;;;5091332;28;20032;-79
2022/11/17 15:19:02;;;;;;;3.50;1.40;;;;;;;;;;5091758;28;20028;-79
2022/11/17 15:21:27;;;;;;;3.80;1.00;;;;;;;;;;5057731;28;20040;-79
2022/11/17 15:23:52;;;;;;;2.13;1.00;;;;;;;;;;5074284;28;20038;-79
2022/11/17 15:26:18;;;;;;;2.17;1.02;;;;;;;;;;5074904;28;20035;-78
2022/11/17 15:28:44;;;;;;;3.38;1.30;;;;;;;;;;5057936;28;20020;-78
2022/11/17 15:31:14;;;;;;;4.18;1.27;;;;;;;;;;5074646;28;20062;-78
2022/11/17 15:33:40;;;;;;;2.55;1.08;;;;;;;;;;5072257;28;20033;-79
2022/11/17 15:36:06;;;;;;;3.08;1.00;;;;;;;;;;5054914;28;20115;-78